sensor_id;sensor_type;location;lat;lon;timestamp;temperature;humidity
37412;DHT22;23278;52.110;6.050;2023-02-01T00:00:12;5.40;99.90
37412;DHT22;23278;52.110;6.050;2023-02-01T00:02:38;5.40;99.90
37412;DHT22;23278;52.110;6.050;2023-02-01T00:05:09;5.40;99.90
37412;DHT22;23278;52.110;6.050;2023-02-01T00:07:37;5.50;99.90
37412;DHT22;23278;52.110;6.050;2023-02-01T00:10:04;5.50;99.90
37412;DHT22;23278;52.110;6.050;2023-02-01T00:12:31;5.50;99.90
37412;DHT22;23278;52.110;6.050;2023-02-01T00:14:57;5.60;99.90
37412;DHT22;23278;52.110;6.050;2023-02-01T00:17:23;5.50;99.90
37412;DHT22;23278;52.110;6.050;2023-02-01T00:19:49;5.50;99.90
37412;DHT22;23278;52.110;6.050;2023-02-01T00:22:15;5.60;99.90
37412;DHT22;23278;52.110;6.050;2023-02-01T00:24:40;5.60;99.90
37412;DHT22;23278;52.110;6.050;2023-02-01T00:27:06;5.60;99.90
37412;DHT22;23278;52.110;6.050;2023-02-01T00:29:32;5.60;99.90
37412;DHT22;23278;52.110;6.050;2023-02-01T00:31:58;5.60;99.90
37412;DHT22;23278;52.110;6.050;2023-02-01T00:34:24;5.60;99.90
37412;DHT22;23278;52.110;6.050;2023-02-01T00:36:50;5.60;99.90
37412;DHT22;23278;52.110;6.050;2023-02-01T00:39:16;5.70;99.90
37412;DHT22;23278;52.110;6.050;2023-02-01T00:41:42;5.70;99.90
37412;DHT22;23278;52.110;6.050;2023-02-01T00:44:08;5.70;99.90
37412;DHT22;23278;52.110;6.050;2023-02-01T00:46:34;5.70;99.90
37412;DHT22;23278;52.110;6.050;2023-02-01T00:49:00;5.70;99.90
37412;DHT22;23278;52.110;6.050;2023-02-01T00:51:29;5.80;99.90
37412;DHT22;23278;52.110;6.050;2023-02-01T00:53:55;5.80;99.90
37412;DHT22;23278;52.110;6.050;2023-02-01T00:56:21;5.80;99.90
37412;DHT22;23278;52.110;6.050;2023-02-01T00:58:47;5.80;99.90
37412;DHT22;23278;52.110;6.050;2023-02-01T01:01:17;5.90;99.90
37412;DHT22;23278;52.110;6.050;2023-02-01T01:03:46;5.90;99.90
37412;DHT22;23278;52.110;6.050;2023-02-01T01:06:15;5.80;99.90
37412;DHT22;23278;52.110;6.050;2023-02-01T01:08:41;5.80;99.90
37412;DHT22;23278;52.110;6.050;2023-02-01T01:11:13;5.70;99.90
37412;DHT22;23278;52.110;6.050;2023-02-01T01:13:41;5.70;99.90
37412;DHT22;23278;52.110;6.050;2023-02-01T01:16:08;5.60;99.90
37412;DHT22;23278;52.110;6.050;2023-02-01T01:18:35;5.60;99.90
37412;DHT22;23278;52.110;6.050;2023-02-01T01:21:03;5.60;99.90
37412;DHT22;23278;52.110;6.050;2023-02-01T01:23:29;5.60;99.90
37412;DHT22;23278;52.110;6.050;2023-02-01T01:25:55;5.60;99.90
37412;DHT22;23278;52.110;6.050;2023-02-01T01:28:22;5.50;99.90
37412;DHT22;23278;52.110;6.050;2023-02-01T01:30:47;5.40;99.90
37412;DHT22;23278;52.110;6.050;2023-02-01T01:33:14;5.40;99.90
37412;DHT22;23278;52.110;6.050;2023-02-01T01:35:40;5.40;99.90
37412;DHT22;23278;52.110;6.050;2023-02-01T01:38:06;5.40;99.90
37412;DHT22;23278;52.110;6.050;2023-02-01T01:40:32;5.40;99.90
37412;DHT22;23278;52.110;6.050;2023-02-01T01:42:58;5.40;99.90
37412;DHT22;23278;52.110;6.050;2023-02-01T01:45:35;5.40;99.90
37412;DHT22;23278;52.110;6.050;2023-02-01T01:48:11;5.30;99.90
37412;DHT22;23278;52.110;6.050;2023-02-01T01:51:03;5.30;99.90
37412;DHT22;23278;52.110;6.050;2023-02-01T01:53:38;5.30;99.90
37412;DHT22;23278;52.110;6.050;2023-02-01T01:56:06;5.30;99.90
37412;DHT22;23278;52.110;6.050;2023-02-01T01:58:43;5.30;99.90
37412;DHT22;23278;52.110;6.050;2023-02-01T02:01:09;5.30;99.90
37412;DHT22;23278;52.110;6.050;2023-02-01T02:03:39;5.30;99.90
37412;DHT22;23278;52.110;6.050;2023-02-01T02:06:12;5.20;99.90
37412;DHT22;23278;52.110;6.050;2023-02-01T02:08:41;5.30;99.90
37412;DHT22;23278;52.110;6.050;2023-02-01T02:11:10;5.30;99.90
37412;DHT22;23278;52.110;6.050;2023-02-01T02:13:41;5.30;99.90
37412;DHT22;23278;52.110;6.050;2023-02-01T02:36:49;5.70;99.90
37412;DHT22;23278;52.110;6.050;2023-02-01T02:42:35;5.70;99.90
37412;DHT22;23278;52.110;6.050;2023-02-01T02:45:43;5.80;99.90
37412;DHT22;23278;52.110;6.050;2023-02-01T02:48:36;5.90;99.90
37412;DHT22;23278;52.110;6.050;2023-02-01T02:51:20;5.90;99.90
37412;DHT22;23278;52.110;6.050;2023-02-01T02:54:13;5.90;99.90
37412;DHT22;23278;52.110;6.050;2023-02-01T02:56:58;6.00;99.90
37412;DHT22;23278;52.110;6.050;2023-02-01T02:59:45;6.10;99.90
37412;DHT22;23278;52.110;6.050;2023-02-01T03:02:32;6.10;99.90
37412;DHT22;23278;52.110;6.050;2023-02-01T03:05:18;6.20;99.90
37412;DHT22;23278;52.110;6.050;2023-02-01T03:10:47;6.10;99.90
37412;DHT22;23278;52.110;6.050;2023-02-01T03:13:36;6.10;99.90
37412;DHT22;23278;52.110;6.050;2023-02-01T03:16:10;6.00;99.90
37412;DHT22;23278;52.110;6.050;2023-02-01T03:18:58;6.00;99.90
37412;DHT22;23278;52.110;6.050;2023-02-01T03:21:43;6.00;99.90
37412;DHT22;23278;52.110;6.050;2023-02-01T03:24:30;6.00;99.90
37412;DHT22;23278;52.110;6.050;2023-02-01T03:27:13;6.10;99.90
37412;DHT22;23278;52.110;6.050;2023-02-01T03:32:29;6.10;99.90
37412;DHT22;23278;52.110;6.050;2023-02-01T03:35:15;6.20;99.90
37412;DHT22;23278;52.110;6.050;2023-02-01T03:37:41;6.20;99.90
37412;DHT22;23278;52.110;6.050;2023-02-01T03:40:10;6.10;99.90
37412;DHT22;23278;52.110;6.050;2023-02-01T03:42:40;6.20;99.90
37412;DHT22;23278;52.110;6.050;2023-02-01T03:45:13;6.20;99.90
37412;DHT22;23278;52.110;6.050;2023-02-01T03:47:46;6.30;99.90
37412;DHT22;23278;52.110;6.050;2023-02-01T03:50:17;6.20;99.90
37412;DHT22;23278;52.110;6.050;2023-02-01T03:52:54;6.30;99.90
37412;DHT22;23278;52.110;6.050;2023-02-01T03:55:25;6.20;99.90
37412;DHT22;23278;52.110;6.050;2023-02-01T04:00:28;6.20;99.90
37412;DHT22;23278;52.110;6.050;2023-02-01T04:02:56;6.10;99.90
37412;DHT22;23278;52.110;6.050;2023-02-01T04:05:22;6.10;99.90
37412;DHT22;23278;52.110;6.050;2023-02-01T04:07:54;6.10;99.90
37412;DHT22;23278;52.110;6.050;2023-02-01T04:10:20;6.10;99.90
37412;DHT22;23278;52.110;6.050;2023-02-01T04:12:46;6.10;99.90
37412;DHT22;23278;52.110;6.050;2023-02-01T04:15:12;6.10;99.90
37412;DHT22;23278;52.110;6.050;2023-02-01T04:17:38;6.10;99.90
37412;DHT22;23278;52.110;6.050;2023-02-01T04:20:04;6.10;99.90
37412;DHT22;23278;52.110;6.050;2023-02-01T04:22:31;6.20;99.90
37412;DHT22;23278;52.110;6.050;2023-02-01T04:24:56;6.30;99.90
37412;DHT22;23278;52.110;6.050;2023-02-01T04:27:22;6.40;99.90
37412;DHT22;23278;52.110;6.050;2023-02-01T04:29:48;6.40;99.90
37412;DHT22;23278;52.110;6.050;2023-02-01T04:32:18;6.40;99.90
37412;DHT22;23278;52.110;6.050;2023-02-01T04:34:45;6.50;99.90
37412;DHT22;23278;52.110;6.050;2023-02-01T04:37:11;6.60;99.90
37412;DHT22;23278;52.110;6.050;2023-02-01T04:39:37;6.70;99.90
37412;DHT22;23278;52.110;6.050;2023-02-01T04:42:03;6.80;99.90
37412;DHT22;23278;52.110;6.050;2023-02-01T04:44:29;6.80;99.90
37412;DHT22;23278;52.110;6.050;2023-02-01T04:46:55;6.90;99.90
37412;DHT22;23278;52.110;6.050;2023-02-01T04:49:21;6.90;99.90
37412;DHT22;23278;52.110;6.050;2023-02-01T04:51:48;7.00;99.90
37412;DHT22;23278;52.110;6.050;2023-02-01T04:54:14;7.00;99.90
37412;DHT22;23278;52.110;6.050;2023-02-01T04:56:40;7.00;99.90
37412;DHT22;23278;52.110;6.050;2023-02-01T04:59:06;7.20;99.90
37412;DHT22;23278;52.110;6.050;2023-02-01T05:01:32;7.20;99.90
37412;DHT22;23278;52.110;6.050;2023-02-01T05:03:58;7.20;99.90
37412;DHT22;23278;52.110;6.050;2023-02-01T05:06:24;7.20;99.90
37412;DHT22;23278;52.110;6.050;2023-02-01T05:08:50;7.20;99.90
37412;DHT22;23278;52.110;6.050;2023-02-01T05:11:16;7.20;99.90
37412;DHT22;23278;52.110;6.050;2023-02-01T05:14:01;7.30;99.90
37412;DHT22;23278;52.110;6.050;2023-02-01T05:16:27;7.30;99.90
37412;DHT22;23278;52.110;6.050;2023-02-01T05:18:53;7.30;99.90
37412;DHT22;23278;52.110;6.050;2023-02-01T05:21:19;7.20;99.90
37412;DHT22;23278;52.110;6.050;2023-02-01T05:23:45;7.20;99.90
37412;DHT22;23278;52.110;6.050;2023-02-01T05:26:29;7.10;99.90
37412;DHT22;23278;52.110;6.050;2023-02-01T05:28:55;7.20;99.90
37412;DHT22;23278;52.110;6.050;2023-02-01T05:31:21;7.20;99.90
37412;DHT22;23278;52.110;6.050;2023-02-01T05:33:47;7.30;99.90
37412;DHT22;23278;52.110;6.050;2023-02-01T05:36:13;7.30;99.90
37412;DHT22;23278;52.110;6.050;2023-02-01T05:38:39;7.30;99.90
37412;DHT22;23278;52.110;6.050;2023-02-01T05:41:05;7.40;99.90
37412;DHT22;23278;52.110;6.050;2023-02-01T05:43:31;7.40;99.90
37412;DHT22;23278;52.110;6.050;2023-02-01T05:45:57;7.30;99.90
37412;DHT22;23278;52.110;6.050;2023-02-01T05:48:23;7.40;99.90
37412;DHT22;23278;52.110;6.050;2023-02-01T05:50:49;7.40;99.90
37412;DHT22;23278;52.110;6.050;2023-02-01T05:53:15;7.40;99.90
37412;DHT22;23278;52.110;6.050;2023-02-01T05:55:41;7.40;99.90
37412;DHT22;23278;52.110;6.050;2023-02-01T05:58:07;7.40;99.90
37412;DHT22;23278;52.110;6.050;2023-02-01T06:00:33;7.40;99.90
37412;DHT22;23278;52.110;6.050;2023-02-01T06:02:59;7.40;99.90
37412;DHT22;23278;52.110;6.050;2023-02-01T06:05:25;7.40;99.90
37412;DHT22;23278;52.110;6.050;2023-02-01T06:07:52;7.50;99.90
37412;DHT22;23278;52.110;6.050;2023-02-01T06:10:18;7.40;99.90
37412;DHT22;23278;52.110;6.050;2023-02-01T06:12:46;7.40;99.90
37412;DHT22;23278;52.110;6.050;2023-02-01T06:15:12;7.50;99.90
37412;DHT22;23278;52.110;6.050;2023-02-01T06:17:40;7.50;99.90
37412;DHT22;23278;52.110;6.050;2023-02-01T06:20:09;7.40;99.90
37412;DHT22;23278;52.110;6.050;2023-02-01T06:22:36;7.40;99.90
37412;DHT22;23278;52.110;6.050;2023-02-01T06:25:07;7.40;99.90
37412;DHT22;23278;52.110;6.050;2023-02-01T06:27:33;7.40;99.90
37412;DHT22;23278;52.110;6.050;2023-02-01T06:30:00;7.40;99.90
37412;DHT22;23278;52.110;6.050;2023-02-01T06:32:25;7.40;99.90
37412;DHT22;23278;52.110;6.050;2023-02-01T06:34:51;7.40;99.90
37412;DHT22;23278;52.110;6.050;2023-02-01T06:37:23;7.40;99.90
37412;DHT22;23278;52.110;6.050;2023-02-01T06:39:50;7.40;99.90
37412;DHT22;23278;52.110;6.050;2023-02-01T06:42:16;7.40;99.90
37412;DHT22;23278;52.110;6.050;2023-02-01T06:44:42;7.40;99.90
37412;DHT22;23278;52.110;6.050;2023-02-01T06:47:08;7.30;99.90
37412;DHT22;23278;52.110;6.050;2023-02-01T06:49:34;7.20;99.90
37412;DHT22;23278;52.110;6.050;2023-02-01T06:52:00;7.00;99.90
37412;DHT22;23278;52.110;6.050;2023-02-01T06:54:27;6.90;99.90
37412;DHT22;23278;52.110;6.050;2023-02-01T06:56:53;6.80;99.90
37412;DHT22;23278;52.110;6.050;2023-02-01T06:59:19;6.80;99.90
37412;DHT22;23278;52.110;6.050;2023-02-01T07:01:45;6.70;99.90
37412;DHT22;23278;52.110;6.050;2023-02-01T07:04:13;6.80;99.90
37412;DHT22;23278;52.110;6.050;2023-02-01T07:06:39;6.80;99.90
37412;DHT22;23278;52.110;6.050;2023-02-01T07:09:06;6.80;99.90
37412;DHT22;23278;52.110;6.050;2023-02-01T07:11:32;6.80;99.90
37412;DHT22;23278;52.110;6.050;2023-02-01T07:13:58;6.80;99.90
37412;DHT22;23278;52.110;6.050;2023-02-01T07:16:25;6.90;99.90
37412;DHT22;23278;52.110;6.050;2023-02-01T07:18:52;6.80;99.90
37412;DHT22;23278;52.110;6.050;2023-02-01T07:21:19;6.80;99.90
37412;DHT22;23278;52.110;6.050;2023-02-01T07:23:45;6.80;99.90
37412;DHT22;23278;52.110;6.050;2023-02-01T07:26:12;6.70;99.90
37412;DHT22;23278;52.110;6.050;2023-02-01T07:28:39;6.70;99.90
37412;DHT22;23278;52.110;6.050;2023-02-01T07:31:11;6.60;99.90
37412;DHT22;23278;52.110;6.050;2023-02-01T07:33:37;6.60;99.90
37412;DHT22;23278;52.110;6.050;2023-02-01T07:36:05;6.60;99.90
37412;DHT22;23278;52.110;6.050;2023-02-01T07:38:32;6.70;99.90
37412;DHT22;23278;52.110;6.050;2023-02-01T07:40:59;6.70;99.90
37412;DHT22;23278;52.110;6.050;2023-02-01T07:43:26;6.80;99.90
37412;DHT22;23278;52.110;6.050;2023-02-01T07:45:52;6.80;99.90
37412;DHT22;23278;52.110;6.050;2023-02-01T07:48:19;6.90;99.90
37412;DHT22;23278;52.110;6.050;2023-02-01T07:50:48;6.90;99.90
37412;DHT22;23278;52.110;6.050;2023-02-01T07:53:14;7.00;99.90
37412;DHT22;23278;52.110;6.050;2023-02-01T07:55:40;7.00;99.90
37412;DHT22;23278;52.110;6.050;2023-02-01T07:58:06;7.00;99.90
37412;DHT22;23278;52.110;6.050;2023-02-01T08:00:32;7.00;99.90
37412;DHT22;23278;52.110;6.050;2023-02-01T08:03:17;7.10;99.90
37412;DHT22;23278;52.110;6.050;2023-02-01T08:05:43;7.10;99.90
37412;DHT22;23278;52.110;6.050;2023-02-01T08:08:08;7.10;99.90
37412;DHT22;23278;52.110;6.050;2023-02-01T08:10:34;7.20;99.90
37412;DHT22;23278;52.110;6.050;2023-02-01T08:13:02;7.20;99.90
37412;DHT22;23278;52.110;6.050;2023-02-01T08:15:28;7.30;99.90
37412;DHT22;23278;52.110;6.050;2023-02-01T08:17:54;7.30;99.90
37412;DHT22;23278;52.110;6.050;2023-02-01T08:20:21;7.40;99.90
37412;DHT22;23278;52.110;6.050;2023-02-01T08:22:49;7.40;99.90
37412;DHT22;23278;52.110;6.050;2023-02-01T08:25:15;7.40;99.90
37412;DHT22;23278;52.110;6.050;2023-02-01T08:27:41;7.50;99.90
37412;DHT22;23278;52.110;6.050;2023-02-01T08:30:08;7.40;99.90
37412;DHT22;23278;52.110;6.050;2023-02-01T08:32:34;7.30;99.90
37412;DHT22;23278;52.110;6.050;2023-02-01T08:35:01;7.30;99.90
37412;DHT22;23278;52.110;6.050;2023-02-01T08:37:30;7.50;99.90
37412;DHT22;23278;52.110;6.050;2023-02-01T08:39:56;7.80;99.90
37412;DHT22;23278;52.110;6.050;2023-02-01T08:42:22;7.90;99.90
37412;DHT22;23278;52.110;6.050;2023-02-01T08:45:07;8.00;99.90
37412;DHT22;23278;52.110;6.050;2023-02-01T08:47:34;8.00;99.90
37412;DHT22;23278;52.110;6.050;2023-02-01T08:50:00;8.00;99.90
37412;DHT22;23278;52.110;6.050;2023-02-01T08:52:26;8.00;99.90
37412;DHT22;23278;52.110;6.050;2023-02-01T08:54:52;8.10;99.90
37412;DHT22;23278;52.110;6.050;2023-02-01T08:57:18;8.10;99.90
37412;DHT22;23278;52.110;6.050;2023-02-01T08:59:44;8.10;99.90
37412;DHT22;23278;52.110;6.050;2023-02-01T09:02:14;8.10;99.90
37412;DHT22;23278;52.110;6.050;2023-02-01T09:04:41;8.20;99.90
37412;DHT22;23278;52.110;6.050;2023-02-01T09:07:08;8.10;99.90
37412;DHT22;23278;52.110;6.050;2023-02-01T09:09:34;8.00;99.90
37412;DHT22;23278;52.110;6.050;2023-02-01T09:12:00;8.00;99.90
37412;DHT22;23278;52.110;6.050;2023-02-01T09:14:26;8.00;99.90
37412;DHT22;23278;52.110;6.050;2023-02-01T09:16:52;8.00;99.90
37412;DHT22;23278;52.110;6.050;2023-02-01T09:19:18;8.10;99.90
37412;DHT22;23278;52.110;6.050;2023-02-01T09:21:43;8.40;99.90
37412;DHT22;23278;52.110;6.050;2023-02-01T09:24:10;8.60;99.70
37412;DHT22;23278;52.110;6.050;2023-02-01T09:26:37;8.80;99.00
37412;DHT22;23278;52.110;6.050;2023-02-01T09:29:03;8.80;98.80
37412;DHT22;23278;52.110;6.050;2023-02-01T09:31:31;8.90;98.60
37412;DHT22;23278;52.110;6.050;2023-02-01T09:33:57;9.00;98.50
37412;DHT22;23278;52.110;6.050;2023-02-01T09:36:26;9.10;98.10
37412;DHT22;23278;52.110;6.050;2023-02-01T09:38:52;9.20;97.90
37412;DHT22;23278;52.110;6.050;2023-02-01T09:44:08;9.30;97.60
37412;DHT22;23278;52.110;6.050;2023-02-01T09:46:38;9.40;97.40
37412;DHT22;23278;52.110;6.050;2023-02-01T09:49:10;9.40;97.10
37412;DHT22;23278;52.110;6.050;2023-02-01T09:51:41;9.30;97.00
37412;DHT22;23278;52.110;6.050;2023-02-01T09:54:16;9.30;97.20
37412;DHT22;23278;52.110;6.050;2023-02-01T09:57:05;9.10;97.40
37412;DHT22;23278;52.110;6.050;2023-02-01T09:59:38;9.00;97.50
37412;DHT22;23278;52.110;6.050;2023-02-01T10:02:12;8.90;97.80
37412;DHT22;23278;52.110;6.050;2023-02-01T10:04:38;8.90;98.00
37412;DHT22;23278;52.110;6.050;2023-02-01T10:20:55;8.80;98.10
37412;DHT22;23278;52.110;6.050;2023-02-01T10:24:07;8.70;98.10
37412;DHT22;23278;52.110;6.050;2023-02-01T10:26:40;8.70;98.20
37412;DHT22;23278;52.110;6.050;2023-02-01T10:29:16;8.60;99.50
37412;DHT22;23278;52.110;6.050;2023-02-01T10:31:44;8.30;99.90
37412;DHT22;23278;52.110;6.050;2023-02-01T10:34:21;8.00;99.90
37412;DHT22;23278;52.110;6.050;2023-02-01T10:39:28;7.60;99.90
37412;DHT22;23278;52.110;6.050;2023-02-01T10:41:55;7.40;99.90
37412;DHT22;23278;52.110;6.050;2023-02-01T10:44:42;7.30;99.90
37412;DHT22;23278;52.110;6.050;2023-02-01T10:47:10;7.20;99.90
37412;DHT22;23278;52.110;6.050;2023-02-01T10:49:47;7.10;99.90
37412;DHT22;23278;52.110;6.050;2023-02-01T10:52:17;7.10;99.90
37412;DHT22;23278;52.110;6.050;2023-02-01T10:54:45;7.00;99.90
37412;DHT22;23278;52.110;6.050;2023-02-01T10:57:26;7.00;99.90
37412;DHT22;23278;52.110;6.050;2023-02-01T10:59:55;6.90;99.90
37412;DHT22;23278;52.110;6.050;2023-02-01T11:02:34;6.80;99.90
37412;DHT22;23278;52.110;6.050;2023-02-01T11:05:10;6.70;99.90
37412;DHT22;23278;52.110;6.050;2023-02-01T11:07:39;6.70;99.90
37412;DHT22;23278;52.110;6.050;2023-02-01T11:10:36;6.70;99.90
37412;DHT22;23278;52.110;6.050;2023-02-01T11:13:04;6.60;99.90
37412;DHT22;23278;52.110;6.050;2023-02-01T11:15:29;6.60;99.90
37412;DHT22;23278;52.110;6.050;2023-02-01T11:17:55;6.60;99.90
37412;DHT22;23278;52.110;6.050;2023-02-01T11:22:57;6.50;99.90
37412;DHT22;23278;52.110;6.050;2023-02-01T11:25:23;6.50;99.90
37412;DHT22;23278;52.110;6.050;2023-02-01T11:27:51;6.50;99.90
37412;DHT22;23278;52.110;6.050;2023-02-01T11:30:44;6.50;99.90
37412;DHT22;23278;52.110;6.050;2023-02-01T11:33:16;6.60;99.90
37412;DHT22;23278;52.110;6.050;2023-02-01T11:35:43;6.60;99.90
37412;DHT22;23278;52.110;6.050;2023-02-01T11:38:26;6.60;99.90
37412;DHT22;23278;52.110;6.050;2023-02-01T11:40:52;6.60;99.90
37412;DHT22;23278;52.110;6.050;2023-02-01T11:43:28;6.60;99.90
37412;DHT22;23278;52.110;6.050;2023-02-01T11:46:01;6.60;99.90
37412;DHT22;23278;52.110;6.050;2023-02-01T11:48:30;6.70;99.90
37412;DHT22;23278;52.110;6.050;2023-02-01T11:54:05;6.70;99.90
37412;DHT22;23278;52.110;6.050;2023-02-01T11:56:37;6.70;99.90
37412;DHT22;23278;52.110;6.050;2023-02-01T12:02:00;6.80;99.90
37412;DHT22;23278;52.110;6.050;2023-02-01T12:16:19;7.30;99.90
37412;DHT22;23278;52.110;6.050;2023-02-01T12:24:58;7.60;99.90
37412;DHT22;23278;52.110;6.050;2023-02-01T12:27:41;7.60;99.90
37412;DHT22;23278;52.110;6.050;2023-02-01T12:41:16;7.50;99.90
37412;DHT22;23278;52.110;6.050;2023-02-01T12:43:58;7.60;99.90
37412;DHT22;23278;52.110;6.050;2023-02-01T12:46:30;7.60;99.90
37412;DHT22;23278;52.110;6.050;2023-02-01T12:51:36;7.70;99.90
37412;DHT22;23278;52.110;6.050;2023-02-01T12:57:02;7.80;99.90
37412;DHT22;23278;52.110;6.050;2023-02-01T12:59:59;7.80;99.90
37412;DHT22;23278;52.110;6.050;2023-02-01T13:02:41;7.80;99.90
37412;DHT22;23278;52.110;6.050;2023-02-01T13:05:17;7.80;99.90
37412;DHT22;23278;52.110;6.050;2023-02-01T13:08:03;7.80;99.90
37412;DHT22;23278;52.110;6.050;2023-02-01T13:10:42;7.80;99.90
37412;DHT22;23278;52.110;6.050;2023-02-01T13:13:28;7.80;99.90
37412;DHT22;23278;52.110;6.050;2023-02-01T13:16:02;7.80;99.90
37412;DHT22;23278;52.110;6.050;2023-02-01T13:18:36;7.90;99.90
37412;DHT22;23278;52.110;6.050;2023-02-01T13:21:08;7.90;99.90
37412;DHT22;23278;52.110;6.050;2023-02-01T13:23:40;8.00;99.90
37412;DHT22;23278;52.110;6.050;2023-02-01T13:26:07;8.00;99.90
37412;DHT22;23278;52.110;6.050;2023-02-01T13:28:47;8.00;99.90
37412;DHT22;23278;52.110;6.050;2023-02-01T13:39:56;8.00;99.90
37412;DHT22;23278;52.110;6.050;2023-02-01T13:42:31;8.00;99.90
37412;DHT22;23278;52.110;6.050;2023-02-01T13:45:16;8.10;99.90
37412;DHT22;23278;52.110;6.050;2023-02-01T13:47:45;8.10;99.90
37412;DHT22;23278;52.110;6.050;2023-02-01T13:55:39;8.30;99.90
37412;DHT22;23278;52.110;6.050;2023-02-01T14:00:46;8.30;99.90
37412;DHT22;23278;52.110;6.050;2023-02-01T14:03:15;8.30;99.90
37412;DHT22;23278;52.110;6.050;2023-02-01T14:11:00;8.40;99.90
37412;DHT22;23278;52.110;6.050;2023-02-01T14:21:30;8.40;99.90
37412;DHT22;23278;52.110;6.050;2023-02-01T14:24:12;8.40;99.90
37412;DHT22;23278;52.110;6.050;2023-02-01T14:26:46;8.40;99.90
37412;DHT22;23278;52.110;6.050;2023-02-01T14:31:48;8.40;99.90
37412;DHT22;23278;52.110;6.050;2023-02-01T14:34:26;8.40;99.90
37412;DHT22;23278;52.110;6.050;2023-02-01T14:37:03;8.30;99.90
37412;DHT22;23278;52.110;6.050;2023-02-01T14:42:26;8.10;99.90
37412;DHT22;23278;52.110;6.050;2023-02-01T14:47:40;7.90;99.90
37412;DHT22;23278;52.110;6.050;2023-02-01T14:52:41;7.90;99.90
37412;DHT22;23278;52.110;6.050;2023-02-01T14:58:01;7.90;99.90
37412;DHT22;23278;52.110;6.050;2023-02-01T15:00:31;7.90;99.90
37412;DHT22;23278;52.110;6.050;2023-02-01T15:03:32;7.90;99.90
37412;DHT22;23278;52.110;6.050;2023-02-01T15:05:59;7.90;99.90
37412;DHT22;23278;52.110;6.050;2023-02-01T15:08:37;7.90;99.90
37412;DHT22;23278;52.110;6.050;2023-02-01T15:11:11;8.00;99.90
37412;DHT22;23278;52.110;6.050;2023-02-01T15:13:47;8.00;99.90
37412;DHT22;23278;52.110;6.050;2023-02-01T15:16:17;8.00;99.90
37412;DHT22;23278;52.110;6.050;2023-02-01T15:18:43;8.00;99.90
37412;DHT22;23278;52.110;6.050;2023-02-01T15:21:21;7.90;99.90
37412;DHT22;23278;52.110;6.050;2023-02-01T15:23:48;7.90;99.90
37412;DHT22;23278;52.110;6.050;2023-02-01T15:26:31;7.70;99.90
37412;DHT22;23278;52.110;6.050;2023-02-01T15:28:58;7.70;99.90
37412;DHT22;23278;52.110;6.050;2023-02-01T15:31:39;7.60;99.90
37412;DHT22;23278;52.110;6.050;2023-02-01T15:34:06;7.60;99.90
37412;DHT22;23278;52.110;6.050;2023-02-01T15:36:32;7.60;99.90
37412;DHT22;23278;52.110;6.050;2023-02-01T15:39:19;7.40;99.90
37412;DHT22;23278;52.110;6.050;2023-02-01T15:41:50;7.20;99.90
37412;DHT22;23278;52.110;6.050;2023-02-01T15:44:52;7.00;99.90
37412;DHT22;23278;52.110;6.050;2023-02-01T15:47:28;6.80;99.90
37412;DHT22;23278;52.110;6.050;2023-02-01T15:49:59;6.70;99.90
37412;DHT22;23278;52.110;6.050;2023-02-01T15:52:40;6.60;99.90
37412;DHT22;23278;52.110;6.050;2023-02-01T15:57:44;6.50;99.90
37412;DHT22;23278;52.110;6.050;2023-02-01T16:00:29;6.50;99.90
37412;DHT22;23278;52.110;6.050;2023-02-01T16:02:57;6.50;99.90
37412;DHT22;23278;52.110;6.050;2023-02-01T16:05:36;6.40;99.90
37412;DHT22;23278;52.110;6.050;2023-02-01T16:10:45;6.30;99.90
37412;DHT22;23278;52.110;6.050;2023-02-01T16:13:12;6.20;99.90
37412;DHT22;23278;52.110;6.050;2023-02-01T16:15:39;6.20;99.90
37412;DHT22;23278;52.110;6.050;2023-02-01T16:18:06;6.20;99.90
37412;DHT22;23278;52.110;6.050;2023-02-01T16:20:34;6.10;99.90
37412;DHT22;23278;52.110;6.050;2023-02-01T16:23:02;6.20;99.90
37412;DHT22;23278;52.110;6.050;2023-02-01T16:25:28;6.20;99.90
37412;DHT22;23278;52.110;6.050;2023-02-01T16:27:54;6.30;99.90
37412;DHT22;23278;52.110;6.050;2023-02-01T16:30:20;6.30;99.90
37412;DHT22;23278;52.110;6.050;2023-02-01T16:32:52;6.30;99.90
37412;DHT22;23278;52.110;6.050;2023-02-01T16:35:28;6.40;99.90
37412;DHT22;23278;52.110;6.050;2023-02-01T16:37:58;6.40;99.90
37412;DHT22;23278;52.110;6.050;2023-02-01T16:40:24;6.30;99.90
37412;DHT22;23278;52.110;6.050;2023-02-01T16:42:53;6.30;99.90
37412;DHT22;23278;52.110;6.050;2023-02-01T16:45:21;6.30;99.90
37412;DHT22;23278;52.110;6.050;2023-02-01T16:47:52;6.30;99.90
37412;DHT22;23278;52.110;6.050;2023-02-01T16:50:24;6.40;99.90
37412;DHT22;23278;52.110;6.050;2023-02-01T16:52:51;6.40;99.90
37412;DHT22;23278;52.110;6.050;2023-02-01T16:55:19;6.50;99.90
37412;DHT22;23278;52.110;6.050;2023-02-01T16:57:47;6.50;99.90
37412;DHT22;23278;52.110;6.050;2023-02-01T17:00:13;6.70;99.90
37412;DHT22;23278;52.110;6.050;2023-02-01T17:02:41;6.70;99.90
37412;DHT22;23278;52.110;6.050;2023-02-01T17:05:09;6.70;99.90
37412;DHT22;23278;52.110;6.050;2023-02-01T17:07:36;6.70;99.90
37412;DHT22;23278;52.110;6.050;2023-02-01T17:10:05;6.60;99.90
37412;DHT22;23278;52.110;6.050;2023-02-01T17:12:32;6.50;99.90
37412;DHT22;23278;52.110;6.050;2023-02-01T17:14:59;6.40;99.90
37412;DHT22;23278;52.110;6.050;2023-02-01T17:17:37;6.30;99.90
37412;DHT22;23278;52.110;6.050;2023-02-01T17:20:04;6.20;99.90
37412;DHT22;23278;52.110;6.050;2023-02-01T17:22:31;6.10;99.90
37412;DHT22;23278;52.110;6.050;2023-02-01T17:24:57;5.90;99.90
37412;DHT22;23278;52.110;6.050;2023-02-01T17:27:23;5.90;99.90
37412;DHT22;23278;52.110;6.050;2023-02-01T17:29:49;5.80;99.90
37412;DHT22;23278;52.110;6.050;2023-02-01T17:32:22;5.70;99.90
37412;DHT22;23278;52.110;6.050;2023-02-01T17:34:48;5.70;99.90
37412;DHT22;23278;52.110;6.050;2023-02-01T17:39:45;5.60;99.90
37412;DHT22;23278;52.110;6.050;2023-02-01T17:42:21;5.60;99.90
37412;DHT22;23278;52.110;6.050;2023-02-01T17:44:48;5.60;99.90
37412;DHT22;23278;52.110;6.050;2023-02-01T17:47:15;5.60;99.90
37412;DHT22;23278;52.110;6.050;2023-02-01T17:49:41;5.60;99.90
37412;DHT22;23278;52.110;6.050;2023-02-01T17:52:14;5.60;99.90
37412;DHT22;23278;52.110;6.050;2023-02-01T17:54:40;5.70;99.90
37412;DHT22;23278;52.110;6.050;2023-02-01T17:57:12;5.80;99.90
37412;DHT22;23278;52.110;6.050;2023-02-01T17:59:39;5.80;99.90
37412;DHT22;23278;52.110;6.050;2023-02-01T18:02:18;5.90;99.90
37412;DHT22;23278;52.110;6.050;2023-02-01T18:04:44;6.00;99.90
37412;DHT22;23278;52.110;6.050;2023-02-01T18:07:10;6.00;99.90
37412;DHT22;23278;52.110;6.050;2023-02-01T18:09:36;6.20;99.90
37412;DHT22;23278;52.110;6.050;2023-02-01T18:12:04;6.30;99.90
37412;DHT22;23278;52.110;6.050;2023-02-01T18:14:30;6.40;99.90
37412;DHT22;23278;52.110;6.050;2023-02-01T18:16:56;6.50;99.90
37412;DHT22;23278;52.110;6.050;2023-02-01T18:19:22;6.60;99.90
37412;DHT22;23278;52.110;6.050;2023-02-01T18:21:48;6.70;99.90
37412;DHT22;23278;52.110;6.050;2023-02-01T18:24:15;6.70;99.90
37412;DHT22;23278;52.110;6.050;2023-02-01T18:26:42;6.80;99.90
37412;DHT22;23278;52.110;6.050;2023-02-01T18:29:09;6.80;99.90